createdAt,value
2023-03-15T00:00:54.598Z,49.80
2023-03-15T00:03:21.334Z,49.60
2023-03-15T00:05:48.380Z,49.70
2023-03-15T00:08:15.068Z,50.30
2023-03-15T00:10:42.214Z,50.20
2023-03-15T00:13:08.951Z,50.30
2023-03-15T00:15:35.858Z,50.10
2023-03-15T00:18:03.254Z,49.50
2023-03-15T00:20:30.299Z,49.80
2023-03-15T00:22:56.936Z,49.90
2023-03-15T00:25:23.503Z,49.70
2023-03-15T00:27:50.267Z,49.50
2023-03-15T00:30:17.033Z,49.50
2023-03-15T00:32:43.690Z,49.50
2023-03-15T00:35:12.843Z,49.40
2023-03-15T00:37:39.527Z,49.40
2023-03-15T00:40:07.638Z,49.40
2023-03-15T00:42:34.171Z,49.40
2023-03-15T00:45:00.747Z,49.30
2023-03-15T00:47:27.333Z,49.30
2023-03-15T00:49:53.961Z,49.30
2023-03-15T00:52:22.072Z,49.30
2023-03-15T00:54:53.129Z,49.90
2023-03-15T00:57:19.852Z,49.40
2023-03-15T00:59:46.433Z,49.40
2023-03-15T01:02:13.016Z,49.40
2023-03-15T01:04:39.568Z,49.40
2023-03-15T01:07:06.113Z,49.50
2023-03-15T01:09:32.712Z,50.30
2023-03-15T01:11:59.312Z,49.60
2023-03-15T01:14:25.935Z,50.30
2023-03-15T01:16:52.586Z,49.40
2023-03-15T01:19:19.411Z,49.60
2023-03-15T01:21:47.833Z,49.40
2023-03-15T01:24:14.790Z,49.30
2023-03-15T01:26:41.395Z,49.40
2023-03-15T01:29:07.975Z,49.40
2023-03-15T01:31:34.677Z,49.30
2023-03-15T01:34:01.330Z,49.30
2023-03-15T01:36:27.978Z,49.30
2023-03-15T01:38:55.056Z,49.20
2023-03-15T01:41:21.842Z,49.20
2023-03-15T01:43:48.519Z,49.20
2023-03-15T01:46:28.836Z,49.20
2023-03-15T01:49:01.459Z,49.30
2023-03-15T01:51:30.732Z,49.20
2023-03-15T01:54:01.890Z,49.20
2023-03-15T01:56:28.512Z,49.30
2023-03-15T01:58:55.091Z,49.30
2023-03-15T02:01:21.674Z,49.30
2023-03-15T02:03:49.477Z,49.20
2023-03-15T02:06:19.267Z,50.30
2023-03-15T02:08:47.029Z,49.30
2023-03-15T02:11:13.631Z,49.30
2023-03-15T02:13:40.221Z,49.20
2023-03-15T02:16:07.095Z,49.20
2023-03-15T02:18:35.778Z,49.20
2023-03-15T02:21:08.629Z,49.20
2023-03-15T02:23:35.217Z,49.20
2023-03-15T02:26:20.740Z,49.40
2023-03-15T02:28:47.299Z,49.20
2023-03-15T02:31:14.314Z,49.20
2023-03-15T02:33:41.859Z,49.40
2023-03-15T02:36:16.855Z,49.20
2023-03-15T02:38:43.431Z,49.20
2023-03-15T02:41:10.487Z,49.20
2023-03-15T02:43:37.085Z,49.20
2023-03-15T02:46:03.768Z,49.20
2023-03-15T02:48:31.281Z,49.00
2023-03-15T02:50:57.843Z,49.40
2023-03-15T02:53:24.414Z,49.00
2023-03-15T02:55:51.808Z,48.90
2023-03-15T02:58:18.419Z,49.10
2023-03-15T03:00:45.029Z,49.00
2023-03-15T03:03:11.738Z,49.10
2023-03-15T03:05:38.355Z,49.10
2023-03-15T03:08:05.073Z,48.90
2023-03-15T03:10:31.647Z,49.00
2023-03-15T03:12:58.226Z,49.00
2023-03-15T03:15:24.827Z,49.00
2023-03-15T03:17:51.378Z,49.00
2023-03-15T03:20:17.997Z,49.30
2023-03-15T03:22:44.960Z,49.00
2023-03-15T03:25:12.099Z,49.00
2023-03-15T03:27:39.339Z,48.90
2023-03-15T03:30:06.808Z,49.00
2023-03-15T03:32:33.560Z,48.90
2023-03-15T03:35:00.137Z,49.00
2023-03-15T03:37:26.702Z,48.90
2023-03-15T03:39:53.271Z,48.90
2023-03-15T03:42:19.850Z,48.80
2023-03-15T03:44:46.481Z,49.10
2023-03-15T03:47:13.069Z,48.90
2023-03-15T03:49:39.761Z,49.20
2023-03-15T03:52:06.558Z,49.00
2023-03-15T03:54:33.202Z,48.90
2023-03-15T03:56:59.842Z,48.90
2023-03-15T03:59:44.750Z,49.00
2023-03-15T04:02:11.390Z,49.60
2023-03-15T04:04:41.196Z,48.90
2023-03-15T04:07:08.021Z,49.00
2023-03-15T04:09:37.499Z,48.90
2023-03-15T04:12:05.366Z,48.90
2023-03-15T04:14:31.980Z,48.90
2023-03-15T04:16:58.622Z,49.00
2023-03-15T04:19:25.224Z,48.80
2023-03-15T04:21:52.465Z,48.90
2023-03-15T04:24:19.057Z,48.80
2023-03-15T04:26:45.689Z,48.90
2023-03-15T04:29:12.493Z,48.90
2023-03-15T04:31:39.152Z,48.70
2023-03-15T04:34:05.752Z,48.90
2023-03-15T04:36:32.361Z,48.80
2023-03-15T04:39:05.975Z,48.80
2023-03-15T04:41:34.781Z,48.80
2023-03-15T04:44:04.551Z,48.80
2023-03-15T04:46:31.988Z,48.80
2023-03-15T04:48:58.777Z,48.80
2023-03-15T04:51:25.334Z,48.90
2023-03-15T04:53:51.976Z,48.80
2023-03-15T04:56:18.552Z,48.70
2023-03-15T04:58:45.134Z,48.80
2023-03-15T05:01:11.992Z,48.90
2023-03-15T05:03:38.685Z,49.00
2023-03-15T05:06:08.258Z,48.70
2023-03-15T05:08:36.199Z,48.60
2023-03-15T05:11:03.287Z,48.70
2023-03-15T05:13:29.913Z,48.80
2023-03-15T05:15:56.656Z,48.70
2023-03-15T05:18:23.489Z,48.80
2023-03-15T05:20:50.335Z,48.80
2023-03-15T05:23:17.005Z,48.80
2023-03-15T05:25:43.602Z,49.40
2023-03-15T05:28:10.212Z,48.80
2023-03-15T05:30:36.773Z,48.90
2023-03-15T05:33:05.166Z,49.00
2023-03-15T05:35:31.808Z,48.80
2023-03-15T05:37:58.420Z,49.00
2023-03-15T05:40:25.017Z,48.80
2023-03-15T05:42:51.604Z,48.80
2023-03-15T05:45:18.296Z,48.70
2023-03-15T05:47:44.906Z,48.60
2023-03-15T05:50:11.510Z,48.70
2023-03-15T05:52:38.090Z,49.00
2023-03-15T05:55:04.988Z,48.90
2023-03-15T05:57:31.580Z,48.80
2023-03-15T05:59:58.227Z,49.00
2023-03-15T06:02:24.890Z,48.80
2023-03-15T06:04:51.459Z,49.60
2023-03-15T06:07:18.062Z,48.90
2023-03-15T06:09:44.632Z,49.30
2023-03-15T06:12:11.305Z,49.50
2023-03-15T06:14:49.385Z,49.20
2023-03-15T06:17:16.066Z,49.40
2023-03-15T06:19:42.688Z,49.40
2023-03-15T06:22:09.316Z,49.50
2023-03-15T06:24:35.873Z,49.40
2023-03-15T06:27:02.443Z,49.40
2023-03-15T06:29:29.014Z,49.50
2023-03-15T06:31:55.635Z,49.40
2023-03-15T06:34:22.296Z,49.30
2023-03-15T06:36:49.768Z,49.90
2023-03-15T06:39:16.399Z,49.50
2023-03-15T06:41:43.070Z,49.20
2023-03-15T06:44:09.777Z,49.20
2023-03-15T06:46:37.749Z,49.40
2023-03-15T06:49:04.323Z,49.20
2023-03-15T06:51:30.913Z,49.20
2023-03-15T06:53:57.521Z,49.10
2023-03-15T06:56:24.100Z,49.10
2023-03-15T06:58:50.705Z,49.10
2023-03-15T07:01:17.390Z,49.30
2023-03-15T07:03:44.000Z,49.10
2023-03-15T07:06:10.556Z,49.00
2023-03-15T07:08:37.199Z,49.00
2023-03-15T07:11:04.003Z,49.00
2023-03-15T07:13:30.579Z,49.00
2023-03-15T07:15:57.269Z,49.40
2023-03-15T07:18:23.964Z,49.30
2023-03-15T07:20:57.618Z,49.00
2023-03-15T07:23:24.218Z,49.00
2023-03-15T07:25:55.042Z,49.00
2023-03-15T07:28:22.465Z,49.30
2023-03-15T07:31:07.167Z,49.10
2023-03-15T07:33:33.954Z,49.10
2023-03-15T07:36:00.600Z,49.00
2023-03-15T07:38:28.868Z,49.00
2023-03-15T07:40:55.600Z,49.40
2023-03-15T07:43:22.169Z,49.10
2023-03-15T07:45:48.780Z,49.10
2023-03-15T07:48:15.524Z,49.00
2023-03-15T07:50:42.120Z,48.90
2023-03-15T07:53:08.683Z,49.00
2023-03-15T07:55:35.350Z,48.90
2023-03-15T07:58:02.070Z,48.90
2023-03-15T08:00:28.751Z,48.90
2023-03-15T08:02:55.414Z,49.00
2023-03-15T08:05:22.103Z,48.90
2023-03-15T08:07:48.822Z,48.90
2023-03-15T08:10:15.581Z,49.20
2023-03-15T08:12:43.080Z,48.90
2023-03-15T08:15:09.862Z,48.90
2023-03-15T08:17:36.497Z,48.90
2023-03-15T08:20:03.112Z,48.90
2023-03-15T08:22:30.296Z,48.90
2023-03-15T08:24:57.624Z,48.90
2023-03-15T08:27:24.770Z,48.80
2023-03-15T08:29:53.379Z,48.80
2023-03-15T08:32:20.023Z,48.80
2023-03-15T08:34:46.576Z,48.70
2023-03-15T08:37:13.144Z,48.70
2023-03-15T08:39:39.790Z,48.60
2023-03-15T08:42:06.731Z,48.80
2023-03-15T08:44:35.816Z,48.70
2023-03-15T08:47:02.895Z,48.70
2023-03-15T08:49:29.480Z,48.60
2023-03-15T08:51:56.075Z,48.60
2023-03-15T08:54:23.513Z,48.80
2023-03-15T08:56:50.126Z,48.80
2023-03-15T08:59:29.123Z,48.60
2023-03-15T09:01:57.873Z,48.60
2023-03-15T09:04:24.527Z,48.50
2023-03-15T09:06:51.168Z,48.50
2023-03-15T09:09:17.736Z,48.50
2023-03-15T09:11:44.369Z,48.60
2023-03-15T09:14:10.959Z,48.60
2023-03-15T09:16:37.559Z,48.70
2023-03-15T09:19:04.227Z,48.50
2023-03-15T09:21:31.721Z,48.50
2023-03-15T09:23:58.376Z,48.50
2023-03-15T09:26:24.952Z,48.70
2023-03-15T09:28:51.542Z,48.60
2023-03-15T09:31:18.171Z,48.60
2023-03-15T09:33:46.487Z,48.60
2023-03-15T09:36:13.104Z,48.80
2023-03-15T09:38:41.982Z,49.20
2023-03-15T09:41:11.863Z,48.50
2023-03-15T09:43:54.276Z,48.50
2023-03-15T09:46:25.984Z,48.60
2023-03-15T09:48:58.738Z,48.50
2023-03-15T09:51:25.289Z,49.10
2023-03-15T09:53:52.920Z,48.40
2023-03-15T09:56:27.299Z,48.50
2023-03-15T09:58:54.684Z,48.50
2023-03-15T10:01:22.708Z,48.40
2023-03-15T10:03:52.012Z,48.50
2023-03-15T10:06:19.409Z,48.40
2023-03-15T10:08:46.330Z,48.40
2023-03-15T10:11:21.776Z,48.50
2023-03-15T10:13:48.320Z,48.40
2023-03-15T10:16:15.165Z,48.40
2023-03-15T10:18:54.069Z,48.40
2023-03-15T10:21:23.684Z,48.50
2023-03-15T10:23:51.419Z,48.40
2023-03-15T10:26:19.055Z,48.40
2023-03-15T10:28:45.626Z,48.40
2023-03-15T10:31:22.217Z,48.30
2023-03-15T10:33:52.371Z,48.50
2023-03-15T10:36:19.929Z,48.30
2023-03-15T10:38:46.581Z,48.50
2023-03-15T10:41:17.827Z,48.30
2023-03-15T10:43:56.174Z,48.30
2023-03-15T10:46:23.254Z,48.40
2023-03-15T10:48:53.774Z,48.40
2023-03-15T10:51:21.165Z,48.40
2023-03-15T10:53:52.271Z,48.60
2023-03-15T10:56:21.956Z,48.40
2023-03-15T10:59:02.312Z,48.40
2023-03-15T11:01:35.871Z,48.40
2023-03-15T11:04:13.948Z,48.60
2023-03-15T11:06:50.758Z,48.40
2023-03-15T11:09:18.468Z,48.60
2023-03-15T11:11:49.365Z,48.40
2023-03-15T11:14:15.929Z,48.30
2023-03-15T11:16:42.523Z,48.40
2023-03-15T11:19:12.595Z,48.10
2023-03-15T11:21:39.182Z,48.00
2023-03-15T11:24:06.136Z,48.20
2023-03-15T11:26:39.044Z,48.00
2023-03-15T11:29:15.484Z,48.10
2023-03-15T11:31:42.169Z,47.90
2023-03-15T11:34:21.195Z,48.00
2023-03-15T11:36:55.693Z,47.90
2023-03-15T11:39:32.679Z,47.90
2023-03-15T11:41:59.676Z,47.90
2023-03-15T11:44:29.248Z,48.20
2023-03-15T11:47:06.254Z,48.10
2023-03-15T11:49:42.057Z,48.00
2023-03-15T11:52:08.699Z,48.00
2023-03-15T11:54:35.325Z,47.90
2023-03-15T11:57:06.348Z,48.10
2023-03-15T11:59:39.270Z,47.90
2023-03-15T12:02:15.018Z,47.90
2023-03-15T12:04:42.863Z,48.00
2023-03-15T12:07:18.808Z,47.90
2023-03-15T12:09:52.671Z,48.00
2023-03-15T12:12:25.295Z,48.00
2023-03-15T12:15:04.124Z,48.00
2023-03-15T12:17:30.728Z,48.10
2023-03-15T12:20:12.042Z,48.10
2023-03-15T12:22:43.159Z,48.10
2023-03-15T12:25:13.353Z,48.10
2023-03-15T12:27:41.358Z,48.10
2023-03-15T12:30:08.195Z,47.90
2023-03-15T12:32:41.466Z,48.00
2023-03-15T12:35:09.302Z,48.00
2023-03-15T12:37:38.882Z,47.90
2023-03-15T12:40:22.476Z,47.90
2023-03-15T12:42:49.124Z,48.00
2023-03-15T12:45:15.814Z,48.00
2023-03-15T12:47:51.452Z,48.20
2023-03-15T12:50:37.816Z,48.00
2023-03-15T12:53:13.542Z,47.90
2023-03-15T12:55:40.306Z,47.90
2023-03-15T12:58:07.028Z,48.10
2023-03-15T13:00:33.614Z,48.00
2023-03-15T13:03:08.114Z,48.80
2023-03-15T13:05:42.564Z,48.00
2023-03-15T13:08:17.694Z,48.00
2023-03-15T13:10:44.279Z,48.00
2023-03-15T13:13:14.259Z,48.20
2023-03-15T13:15:43.194Z,48.20
2023-03-15T13:18:20.502Z,47.90
2023-03-15T13:21:25.766Z,48.00
2023-03-15T13:23:52.357Z,47.90
2023-03-15T13:26:37.028Z,48.00
2023-03-15T13:29:07.124Z,48.10
2023-03-15T13:31:33.871Z,47.90
2023-03-15T13:34:16.635Z,48.10
2023-03-15T13:36:46.954Z,47.90
2023-03-15T13:39:23.033Z,47.90
2023-03-15T13:41:50.162Z,47.90
2023-03-15T13:44:19.301Z,47.90
2023-03-15T13:46:46.776Z,47.90
2023-03-15T13:49:13.733Z,47.90
2023-03-15T13:51:40.770Z,47.90
2023-03-15T13:54:09.076Z,47.80
2023-03-15T13:56:51.652Z,47.90
2023-03-15T13:59:18.241Z,47.90
2023-03-15T14:01:44.987Z,47.90
2023-03-15T14:04:16.326Z,47.90
2023-03-15T14:06:48.374Z,47.90
2023-03-15T14:09:22.026Z,47.80
2023-03-15T14:12:02.394Z,48.50
2023-03-15T14:14:29.166Z,47.90
2023-03-15T14:17:05.460Z,47.90
2023-03-15T14:19:34.131Z,47.90
2023-03-15T14:22:01.264Z,47.90
2023-03-15T14:24:34.103Z,48.10
2023-03-15T14:27:01.470Z,48.00
2023-03-15T14:29:31.908Z,47.90
2023-03-15T14:31:59.330Z,48.20
2023-03-15T14:34:33.593Z,48.10
2023-03-15T14:37:04.282Z,48.10
2023-03-15T14:39:32.025Z,48.10
2023-03-15T14:41:58.633Z,48.10
2023-03-15T14:44:25.251Z,47.90
2023-03-15T14:46:51.851Z,48.30
2023-03-15T14:49:25.150Z,48.10
2023-03-15T14:51:52.920Z,47.90
2023-03-15T14:54:19.584Z,48.10
2023-03-15T14:56:46.246Z,47.90
2023-03-15T14:59:12.905Z,47.90
2023-03-15T15:01:40.564Z,47.90
2023-03-15T15:04:07.186Z,48.00
2023-03-15T15:06:37.822Z,48.00
2023-03-15T15:09:05.860Z,47.90
2023-03-15T15:11:32.498Z,47.90
2023-03-15T15:13:59.109Z,48.00
2023-03-15T15:16:25.853Z,47.90
2023-03-15T15:18:52.504Z,47.90
2023-03-15T15:21:26.101Z,47.90
2023-03-15T15:23:58.869Z,47.90
2023-03-15T15:26:27.022Z,47.90
2023-03-15T15:28:53.650Z,48.00
2023-03-15T15:31:22.797Z,48.00
2023-03-15T15:33:49.810Z,47.90
2023-03-15T15:36:18.177Z,48.00
2023-03-15T15:38:44.861Z,47.90
2023-03-15T15:41:13.092Z,48.30
2023-03-15T15:43:39.785Z,48.30
2023-03-15T15:46:08.199Z,48.20
2023-03-15T15:48:34.797Z,48.30
2023-03-15T15:51:01.365Z,48.40
2023-03-15T15:53:27.970Z,48.30
2023-03-15T15:55:54.542Z,47.90
2023-03-15T15:58:22.759Z,48.00
2023-03-15T16:00:49.344Z,48.00
2023-03-15T16:03:16.224Z,48.30
2023-03-15T16:08:37.644Z,47.90
2023-03-15T16:11:04.439Z,47.90
2023-03-15T16:13:31.049Z,47.90
2023-03-15T16:15:58.413Z,48.00
2023-03-15T16:18:25.544Z,47.90
2023-03-15T16:20:52.212Z,48.10
2023-03-15T16:23:20.385Z,48.00
2023-03-15T16:25:48.017Z,47.90
2023-03-15T16:28:14.595Z,48.10
2023-03-15T16:30:41.159Z,48.10
2023-03-15T16:33:16.536Z,48.30
2023-03-15T16:35:44.022Z,48.20
2023-03-15T16:38:17.549Z,48.90
2023-03-15T16:40:44.688Z,48.40
2023-03-15T16:43:11.810Z,48.30
2023-03-15T16:45:38.574Z,48.40
2023-03-15T16:48:05.169Z,48.10
2023-03-15T16:50:34.320Z,48.10
2023-03-15T16:53:01.534Z,48.10
2023-03-15T16:55:28.907Z,48.20
2023-03-15T16:57:55.570Z,48.00
2023-03-15T17:00:22.518Z,48.00
2023-03-15T17:02:49.613Z,48.00
2023-03-15T17:05:18.988Z,48.00
2023-03-15T17:07:45.799Z,48.00
2023-03-15T17:10:44.900Z,48.30
2023-03-15T17:13:12.864Z,48.00
2023-03-15T17:15:39.589Z,48.00
2023-03-15T17:18:13.943Z,48.00
2023-03-15T17:20:41.134Z,48.20
2023-03-15T17:23:08.256Z,48.10
2023-03-15T17:25:35.134Z,48.00
2023-03-15T17:28:02.182Z,48.00
2023-03-15T17:30:32.844Z,48.10
2023-03-15T17:32:59.546Z,48.00
2023-03-15T17:35:33.822Z,47.80
2023-03-15T17:38:01.487Z,48.00
2023-03-15T17:40:28.906Z,48.00
2023-03-15T17:42:56.001Z,48.00
2023-03-15T17:45:23.469Z,48.00
2023-03-15T17:47:50.343Z,48.00
2023-03-15T17:50:20.227Z,48.00
2023-03-15T17:52:48.041Z,48.00
2023-03-15T17:55:15.644Z,48.00
2023-03-15T17:57:45.798Z,48.00
2023-03-15T18:00:19.398Z,48.10
2023-03-15T18:02:49.821Z,48.30
2023-03-15T18:05:22.397Z,48.00
2023-03-15T18:07:58.199Z,48.20
2023-03-15T18:10:26.291Z,48.10
2023-03-15T18:12:53.774Z,48.00
2023-03-15T18:15:20.976Z,48.20
2023-03-15T18:17:47.586Z,48.00
2023-03-15T18:20:18.022Z,48.10
2023-03-15T18:22:44.701Z,48.00
2023-03-15T18:25:16.484Z,48.00
2023-03-15T18:27:43.051Z,48.00
2023-03-15T18:30:13.206Z,48.00
2023-03-15T18:32:39.931Z,48.00
2023-03-15T18:35:06.838Z,48.00
2023-03-15T18:37:33.489Z,48.60
2023-03-15T18:40:01.188Z,48.00
2023-03-15T18:42:30.206Z,48.00
2023-03-15T18:44:56.776Z,48.00
2023-03-15T18:47:23.401Z,48.00
2023-03-15T18:49:53.128Z,48.00
2023-03-15T18:52:22.875Z,48.00
2023-03-15T18:54:49.558Z,48.00
2023-03-15T18:57:17.137Z,48.00
2023-03-15T18:59:43.744Z,48.00
2023-03-15T19:02:10.710Z,48.00
2023-03-15T19:04:37.333Z,47.90
2023-03-15T19:07:03.964Z,48.00
2023-03-15T19:09:30.536Z,48.00
2023-03-15T19:11:57.122Z,48.00
2023-03-15T19:14:24.712Z,48.10
2023-03-15T19:16:51.400Z,48.50
2023-03-15T19:19:18.106Z,48.40
2023-03-15T19:21:44.708Z,48.50
2023-03-15T19:24:11.470Z,48.70
2023-03-15T19:26:38.059Z,48.80
2023-03-15T19:29:05.742Z,48.90
2023-03-15T19:31:33.007Z,48.70
2023-03-15T19:33:59.699Z,48.90
2023-03-15T19:36:26.339Z,48.70
2023-03-15T19:38:52.923Z,48.70
2023-03-15T19:41:19.739Z,48.70
2023-03-15T19:43:46.419Z,48.70
2023-03-15T19:46:14.006Z,48.70
2023-03-15T19:48:40.815Z,48.70
2023-03-15T19:51:07.488Z,49.00
2023-03-15T19:53:34.102Z,48.70
2023-03-15T19:56:04.341Z,48.60
2023-03-15T19:58:31.033Z,48.70
2023-03-15T20:00:57.757Z,48.60
2023-03-15T20:03:25.091Z,48.60
2023-03-15T20:05:51.715Z,48.70
2023-03-15T20:08:18.441Z,48.50
2023-03-15T20:10:45.208Z,48.60
2023-03-15T20:13:11.828Z,48.70
2023-03-15T20:15:38.543Z,48.60
2023-03-15T20:18:08.142Z,48.60
2023-03-15T20:20:34.808Z,48.70
2023-03-15T20:23:01.462Z,48.50
2023-03-15T20:25:28.263Z,48.50
2023-03-15T20:27:54.892Z,48.60
2023-03-15T20:30:21.811Z,48.50
2023-03-15T20:32:48.785Z,48.50
2023-03-15T20:35:15.533Z,48.50
2023-03-15T20:37:42.968Z,48.40
2023-03-15T20:40:11.464Z,48.50
2023-03-15T20:42:38.223Z,48.50
2023-03-15T20:45:06.848Z,48.50
2023-03-15T20:47:34.064Z,48.50
2023-03-15T20:50:00.760Z,48.50
2023-03-15T20:52:27.445Z,48.30
2023-03-15T20:54:54.157Z,48.40
2023-03-15T20:57:21.063Z,48.30
2023-03-15T20:59:47.679Z,48.20
2023-03-15T21:02:14.312Z,48.30
2023-03-15T21:04:41.028Z,48.10
2023-03-15T21:07:07.978Z,48.20
2023-03-15T21:09:35.337Z,48.30
2023-03-15T21:12:02.016Z,48.30
2023-03-15T21:14:28.594Z,48.40
2023-03-15T21:16:55.282Z,48.30
2023-03-15T21:19:22.884Z,48.20
2023-03-15T21:21:49.483Z,48.20
2023-03-15T21:24:16.135Z,48.20
2023-03-15T21:26:44.807Z,48.20
2023-03-15T21:29:12.347Z,48.20
2023-03-15T21:31:39.977Z,48.20
2023-03-15T21:34:06.602Z,48.00
2023-03-15T21:36:33.220Z,48.00
2023-03-15T21:39:00.082Z,48.10
2023-03-15T21:41:26.699Z,47.90
2023-03-15T21:43:53.292Z,47.90
2023-03-15T21:46:20.009Z,47.90
2023-03-15T21:48:46.602Z,47.90
2023-03-15T21:51:14.719Z,47.90
2023-03-15T21:53:41.482Z,47.90
2023-03-15T21:56:08.212Z,48.10
2023-03-15T21:58:34.780Z,47.90
2023-03-15T22:01:04.584Z,47.90
2023-03-15T22:03:31.344Z,48.20
2023-03-15T22:05:57.927Z,47.90
2023-03-15T22:08:24.672Z,47.90
2023-03-15T22:10:54.755Z,47.90
2023-03-15T22:13:21.508Z,47.90
2023-03-15T22:15:48.161Z,47.90
2023-03-15T22:18:14.818Z,48.00
2023-03-15T22:20:41.406Z,48.00
2023-03-15T22:23:08.204Z,48.00
2023-03-15T22:25:34.772Z,47.90
2023-03-15T22:28:01.989Z,48.10
2023-03-15T22:30:28.688Z,48.00
2023-03-15T22:32:55.436Z,47.90
2023-03-15T22:35:22.730Z,47.80
2023-03-15T22:37:49.485Z,47.90
2023-03-15T22:40:16.246Z,47.90
2023-03-15T22:42:42.985Z,47.90
2023-03-15T22:45:10.149Z,48.00
2023-03-15T22:47:36.774Z,47.80
2023-03-15T22:50:03.520Z,47.90
2023-03-15T22:52:30.111Z,47.80
2023-03-15T22:54:56.674Z,47.90
2023-03-15T22:57:23.351Z,47.90
2023-03-15T22:59:49.931Z,47.90
2023-03-15T23:02:16.510Z,47.90
2023-03-15T23:04:45.177Z,48.10
2023-03-15T23:07:12.102Z,47.90
2023-03-15T23:09:38.689Z,47.90
2023-03-15T23:12:05.869Z,47.70
2023-03-15T23:14:32.453Z,47.90
2023-03-15T23:16:59.227Z,48.50
2023-03-15T23:19:25.827Z,47.70
2023-03-15T23:21:52.437Z,47.80
2023-03-15T23:24:19.768Z,47.80
2023-03-15T23:26:46.460Z,48.10
2023-03-15T23:29:13.416Z,48.00
2023-03-15T23:31:40.484Z,48.00
2023-03-15T23:34:07.942Z,47.70
2023-03-15T23:36:34.761Z,48.40
2023-03-15T23:39:01.374Z,48.00
2023-03-15T23:41:27.952Z,48.10
2023-03-15T23:43:54.621Z,47.70
2023-03-15T23:46:23.544Z,47.70
2023-03-15T23:48:50.386Z,48.30
2023-03-15T23:51:16.958Z,48.50
2023-03-15T23:53:43.605Z,48.10
2023-03-15T23:56:10.187Z,48.20
2023-03-15T23:58:37.380Z,47.90
